createdAt,value
2022-07-29T00:01:51.472Z,97331.44
2022-07-29T00:04:18.387Z,97329.88
2022-07-29T00:06:45.238Z,97327.88
2022-07-29T00:09:13.113Z,97325.91
2022-07-29T00:11:39.611Z,97323.84
2022-07-29T00:14:06.318Z,97316.28
2022-07-29T00:16:32.901Z,97307.88
2022-07-29T00:19:02.084Z,97309.91
2022-07-29T00:21:29.068Z,97304.78
2022-07-29T00:23:55.680Z,97307.00
2022-07-29T00:26:23.998Z,97309.41
2022-07-29T00:28:50.540Z,97311.63
2022-07-29T00:31:17.213Z,97306.88
2022-07-29T00:33:43.758Z,97316.56
2022-07-29T00:36:10.277Z,97314.00
2022-07-29T00:38:36.807Z,97304.38
2022-07-29T00:41:03.345Z,97310.03
2022-07-29T00:43:31.500Z,97303.63
2022-07-29T00:45:58.023Z,97295.09
2022-07-29T00:48:24.558Z,97300.41
2022-07-29T00:50:51.369Z,97301.81
2022-07-29T00:53:18.033Z,97303.00
2022-07-29T00:55:44.589Z,97301.56
2022-07-29T00:58:13.052Z,97302.63
2022-07-29T01:00:41.012Z,97300.50
2022-07-29T01:03:08.040Z,97307.66
2022-07-29T01:05:50.682Z,97301.53
2022-07-29T01:08:18.450Z,97302.22
2022-07-29T01:10:46.569Z,97295.94
2022-07-29T01:13:14.298Z,97294.94
2022-07-29T01:15:49.125Z,97281.84
2022-07-29T01:18:22.282Z,97290.34
2022-07-29T01:21:21.326Z,97301.06
2022-07-29T01:24:00.261Z,97297.03
2022-07-29T01:26:38.881Z,97293.72
2022-07-29T01:29:13.653Z,97291.75
2022-07-29T01:31:59.301Z,97286.88
2022-07-29T01:34:35.701Z,97284.00
2022-07-29T01:37:08.771Z,97283.03
2022-07-29T01:39:38.238Z,97278.38
2022-07-29T01:42:13.570Z,97275.34
2022-07-29T01:44:49.402Z,97271.59
2022-07-29T01:47:21.398Z,97269.09
2022-07-29T01:49:52.088Z,97275.88
2022-07-29T01:52:22.768Z,97264.06
2022-07-29T01:54:55.553Z,97263.19
2022-07-29T01:57:28.860Z,97261.75
2022-07-29T01:59:59.235Z,97255.28
2022-07-29T02:02:29.207Z,97260.84
2022-07-29T02:04:57.187Z,97247.69
2022-07-29T02:07:28.578Z,97249.91
2022-07-29T02:09:56.457Z,97255.44
2022-07-29T02:12:25.086Z,97249.13
2022-07-29T02:14:54.619Z,97248.72
2022-07-29T02:17:27.047Z,97248.41
2022-07-29T02:19:56.904Z,97251.22
2022-07-29T02:22:25.038Z,97252.41
2022-07-29T02:24:53.946Z,97243.63
2022-07-29T02:27:21.526Z,97250.50
2022-07-29T02:29:51.030Z,97247.81
2022-07-29T02:32:18.822Z,97244.59
2022-07-29T02:34:48.321Z,97245.94
2022-07-29T02:37:17.599Z,97243.88
2022-07-29T02:39:45.749Z,97241.94
2022-07-29T02:42:16.439Z,97243.00
2022-07-29T02:44:43.506Z,97237.38
2022-07-29T02:47:17.354Z,97242.06
2022-07-29T02:49:54.407Z,97235.22
2022-07-29T02:52:25.134Z,97236.97
2022-07-29T02:54:55.835Z,97243.19
2022-07-29T02:57:29.668Z,97242.97
2022-07-29T02:59:59.110Z,97243.84
2022-07-29T03:02:27.903Z,97253.50
2022-07-29T03:04:57.489Z,97243.91
2022-07-29T03:07:25.468Z,97239.13
2022-07-29T03:09:53.270Z,97240.47
2022-07-29T03:12:20.515Z,97244.38
2022-07-29T03:14:47.948Z,97250.41
2022-07-29T03:19:49.450Z,97254.53
2022-07-29T03:22:19.213Z,97249.75
2022-07-29T03:24:45.992Z,97251.38
2022-07-29T03:27:13.982Z,97250.63
2022-07-29T03:29:40.490Z,97244.94
2022-07-29T03:32:10.199Z,97253.81
2022-07-29T03:34:38.019Z,97244.13
2022-07-29T03:37:04.890Z,97245.38
2022-07-29T03:39:36.178Z,97248.66
2022-07-29T03:42:05.422Z,97248.25
2022-07-29T03:44:33.535Z,97248.25
2022-07-29T03:47:01.502Z,97253.88
2022-07-29T03:49:29.151Z,97253.22
2022-07-29T03:51:56.195Z,97251.56
2022-07-29T03:54:23.618Z,97253.63
2022-07-29T03:56:53.976Z,97252.31
2022-07-29T03:59:21.975Z,97243.53
2022-07-29T04:01:49.659Z,97255.94
2022-07-29T04:04:16.793Z,97246.28
2022-07-29T04:06:45.766Z,97254.38
2022-07-29T04:09:14.876Z,97261.25
2022-07-29T04:11:57.131Z,97273.25
2022-07-29T04:14:30.932Z,97267.34
2022-07-29T04:16:57.414Z,97276.22
2022-07-29T04:19:23.931Z,97281.31
2022-07-29T04:21:50.499Z,97277.94
2022-07-29T04:24:17.755Z,97277.66
2022-07-29T04:26:46.329Z,97284.59
2022-07-29T04:29:12.839Z,97290.94
2022-07-29T04:31:41.393Z,97295.13
2022-07-29T04:34:08.383Z,97295.97
2022-07-29T04:36:34.883Z,97294.69
2022-07-29T04:39:01.440Z,97301.03
2022-07-29T04:41:32.734Z,97297.78
2022-07-29T04:44:00.285Z,97299.03
2022-07-29T04:46:28.209Z,97302.66
2022-07-29T04:48:56.189Z,97299.41
2022-07-29T04:51:22.870Z,97299.03
2022-07-29T04:53:49.369Z,97293.84
2022-07-29T04:56:15.874Z,97301.97
2022-07-29T04:58:42.415Z,97302.88
2022-07-29T05:01:09.004Z,97300.28
2022-07-29T05:03:35.563Z,97306.41
2022-07-29T05:06:03.558Z,97307.16
2022-07-29T05:08:30.151Z,97304.75
2022-07-29T05:10:56.876Z,97306.94
2022-07-29T05:13:23.365Z,97304.88
2022-07-29T05:15:49.971Z,97314.69
2022-07-29T05:18:16.631Z,97312.78
2022-07-29T05:20:43.150Z,97312.03
2022-07-29T05:23:11.359Z,97314.53
2022-07-29T05:25:43.239Z,97309.09
2022-07-29T05:28:10.561Z,97318.00
2022-07-29T05:30:37.149Z,97315.88
2022-07-29T05:33:03.678Z,97309.00
2022-07-29T05:35:30.339Z,97317.47
2022-07-29T05:37:56.921Z,97319.31
2022-07-29T05:40:25.034Z,97321.59
2022-07-29T05:42:51.524Z,97321.69
2022-07-29T05:45:18.116Z,97319.69
2022-07-29T05:47:44.666Z,97322.94
2022-07-29T05:50:11.206Z,97321.69
2022-07-29T05:52:37.747Z,97318.09
2022-07-29T05:55:04.900Z,97320.25
2022-07-29T05:57:33.104Z,97323.44
2022-07-29T05:59:59.682Z,97316.38
2022-07-29T06:02:26.232Z,97319.38
2022-07-29T06:04:53.087Z,97321.91
2022-07-29T06:07:19.622Z,97329.56
2022-07-29T06:09:46.210Z,97333.72
2022-07-29T06:12:12.803Z,97326.25
2022-07-29T06:14:40.728Z,97332.28
2022-07-29T06:17:07.261Z,97327.66
2022-07-29T06:19:35.618Z,97323.81
2022-07-29T06:22:02.127Z,97320.75
2022-07-29T06:24:28.793Z,97317.66
2022-07-29T06:26:55.369Z,97321.91
2022-07-29T06:29:21.921Z,97325.91
2022-07-29T06:31:49.852Z,97321.41
2022-07-29T06:34:16.854Z,97316.41
2022-07-29T06:36:44.319Z,97318.66
2022-07-29T06:39:12.589Z,97322.38
2022-07-29T06:41:39.131Z,97320.09
2022-07-29T06:44:05.740Z,97326.00
2022-07-29T06:46:32.841Z,97326.72
2022-07-29T06:49:00.933Z,97334.16
2022-07-29T06:51:27.534Z,97334.00
2022-07-29T06:53:59.418Z,97343.06
2022-07-29T06:56:30.312Z,97336.06
2022-07-29T06:58:56.839Z,97333.84
2022-07-29T07:01:23.471Z,97340.13
2022-07-29T07:03:50.043Z,97340.47
2022-07-29T07:06:17.946Z,97347.31
2022-07-29T07:08:44.620Z,97358.56
2022-07-29T07:11:11.259Z,97357.88
2022-07-29T07:13:37.848Z,97355.28
2022-07-29T07:16:05.407Z,97358.63
2022-07-29T07:18:32.200Z,97361.94
2022-07-29T07:20:59.281Z,97360.69
2022-07-29T07:23:27.159Z,97363.53
2022-07-29T07:25:53.795Z,97362.28
2022-07-29T07:28:24.508Z,97360.91
2022-07-29T07:30:51.746Z,97363.16
2022-07-29T07:33:18.374Z,97358.22
2022-07-29T07:35:44.972Z,97365.13
2022-07-29T07:38:11.529Z,97358.72
2022-07-29T07:40:39.564Z,97364.81
2022-07-29T07:43:06.162Z,97356.75
2022-07-29T07:45:33.155Z,97358.22
2022-07-29T07:47:59.712Z,97349.09
2022-07-29T07:50:27.723Z,97352.22
2022-07-29T07:52:56.257Z,97348.13
2022-07-29T07:55:22.794Z,97348.31
2022-07-29T07:57:50.727Z,97343.72
2022-07-29T08:00:18.146Z,97346.50
2022-07-29T08:02:45.458Z,97351.00
2022-07-29T08:05:13.140Z,97347.13
2022-07-29T08:07:40.018Z,97353.75
2022-07-29T08:10:08.326Z,97347.66
2022-07-29T08:12:34.878Z,97344.03
2022-07-29T08:15:03.134Z,97351.25
2022-07-29T08:17:29.660Z,97352.13
2022-07-29T08:19:56.214Z,97346.56
2022-07-29T08:22:22.746Z,97349.81
2022-07-29T08:24:49.336Z,97349.88
2022-07-29T08:27:42.030Z,97359.06
2022-07-29T08:30:04.559Z,97360.34
2022-07-29T08:32:52.724Z,97351.31
2022-07-29T08:35:17.677Z,97353.91
2022-07-29T08:37:44.208Z,97343.00
2022-07-29T08:40:11.817Z,97344.59
2022-07-29T08:42:38.538Z,97341.19
2022-07-29T08:45:08.102Z,97338.88
2022-07-29T08:47:34.674Z,97340.81
2022-07-29T08:50:01.249Z,97346.81
2022-07-29T08:52:29.792Z,97347.78
2022-07-29T08:54:56.522Z,97343.38
2022-07-29T08:57:23.874Z,97331.25
2022-07-29T08:59:53.336Z,97336.06
2022-07-29T09:02:22.951Z,97338.47
2022-07-29T09:04:50.021Z,97336.38
2022-07-29T09:07:20.105Z,97338.16
2022-07-29T09:09:47.315Z,97322.81
2022-07-29T09:12:13.877Z,97316.41
2022-07-29T09:14:55.598Z,97313.19
2022-07-29T09:17:45.263Z,97320.50
2022-07-29T09:20:14.153Z,97308.53
2022-07-29T09:22:42.255Z,97309.69
2022-07-29T09:25:09.523Z,97311.81
2022-07-29T09:27:36.191Z,97312.09
2022-07-29T09:30:05.726Z,97306.47
2022-07-29T09:32:33.309Z,97311.38
2022-07-29T09:35:18.169Z,97307.66
2022-07-29T09:37:45.670Z,97303.50
2022-07-29T09:40:14.315Z,97303.75
2022-07-29T09:42:40.878Z,97296.88
2022-07-29T09:45:08.184Z,97304.09
2022-07-29T09:47:45.348Z,97302.41
2022-07-29T09:50:12.105Z,97290.84
2022-07-29T09:52:47.973Z,97290.56
2022-07-29T09:55:18.143Z,97296.09
2022-07-29T09:57:47.806Z,97293.72
2022-07-29T10:00:17.726Z,97300.34
2022-07-29T10:02:45.792Z,97294.84
2022-07-29T10:05:21.055Z,97293.94
2022-07-29T10:07:53.964Z,97296.31
2022-07-29T10:10:25.819Z,97295.25
2022-07-29T10:12:53.586Z,97296.03
2022-07-29T10:15:22.679Z,97286.31
2022-07-29T10:17:49.892Z,97294.59
2022-07-29T10:20:16.810Z,97285.59
2022-07-29T10:22:53.178Z,97293.91
2022-07-29T10:25:22.447Z,97286.53
2022-07-29T10:27:49.859Z,97287.78
2022-07-29T10:30:17.244Z,97278.56
2022-07-29T10:33:07.514Z,97281.25
2022-07-29T10:36:06.037Z,97274.44
2022-07-29T10:38:45.782Z,97275.84
2022-07-29T10:41:44.315Z,97273.09
2022-07-29T10:44:19.015Z,97284.34
2022-07-29T10:46:46.821Z,97283.44
2022-07-29T10:49:15.848Z,97279.97
2022-07-29T10:52:03.626Z,97282.88
2022-07-29T10:54:44.544Z,97277.56
2022-07-29T10:57:19.002Z,97279.91
2022-07-29T10:59:48.767Z,97275.75
2022-07-29T11:02:43.805Z,97278.38
2022-07-29T11:05:12.100Z,97272.22
2022-07-29T11:07:45.528Z,97270.75
2022-07-29T11:10:27.066Z,97271.38
2022-07-29T11:12:59.473Z,97260.66
2022-07-29T11:15:28.478Z,97263.41
2022-07-29T11:18:08.250Z,97263.97
2022-07-29T11:20:44.073Z,97259.09
2022-07-29T11:23:25.861Z,97260.53
2022-07-29T11:26:18.816Z,97255.31
2022-07-29T11:28:58.415Z,97260.66
2022-07-29T11:31:37.777Z,97259.41
2022-07-29T11:34:28.022Z,97251.91
2022-07-29T11:37:16.222Z,97248.13
2022-07-29T11:39:45.289Z,97253.38
2022-07-29T11:42:41.831Z,97254.72
2022-07-29T11:45:43.798Z,97250.88
2022-07-29T11:48:27.751Z,97250.88
2022-07-29T11:50:48.373Z,97259.66
2022-07-29T11:53:15.545Z,97248.56
2022-07-29T11:55:50.591Z,97256.66
2022-07-29T11:58:22.683Z,97258.97
2022-07-29T12:00:55.630Z,97246.53
2022-07-29T12:03:32.797Z,97251.56
2022-07-29T12:06:00.318Z,97243.69
2022-07-29T12:08:26.997Z,97247.22
2022-07-29T12:10:53.581Z,97248.88
2022-07-29T12:13:22.204Z,97254.75
2022-07-29T12:16:00.000Z,97245.50
2022-07-29T12:18:27.030Z,97252.66
2022-07-29T12:20:58.795Z,97251.03
2022-07-29T12:23:25.614Z,97239.88
2022-07-29T12:25:56.307Z,97237.09
2022-07-29T12:28:27.652Z,97235.34
2022-07-29T12:30:55.650Z,97235.50
2022-07-29T12:33:24.913Z,97247.31
2022-07-29T12:36:03.810Z,97247.03
2022-07-29T12:38:34.083Z,97250.75
2022-07-29T12:41:00.682Z,97240.22
2022-07-29T12:43:27.658Z,97244.84
2022-07-29T12:45:57.120Z,97237.19
2022-07-29T12:48:34.838Z,97228.28
2022-07-29T12:51:02.666Z,97221.88
2022-07-29T12:53:29.931Z,97226.50
2022-07-29T12:55:58.045Z,97225.94
2022-07-29T12:58:33.769Z,97238.00
2022-07-29T13:01:04.640Z,97234.25
2022-07-29T13:03:43.558Z,97230.03
2022-07-29T13:06:36.527Z,97229.59
2022-07-29T13:09:13.925Z,97225.81
2022-07-29T13:11:46.518Z,97230.59
2022-07-29T13:14:30.230Z,97224.22
2022-07-29T13:17:06.548Z,97204.09
2022-07-29T13:19:38.608Z,97202.94
2022-07-29T13:22:05.358Z,97210.75
2022-07-29T13:24:31.908Z,97199.66
2022-07-29T13:26:58.527Z,97194.50
2022-07-29T13:29:26.576Z,97196.00
2022-07-29T13:31:57.099Z,97200.56
2022-07-29T13:34:25.127Z,97198.41
2022-07-29T13:36:51.661Z,97194.88
2022-07-29T13:39:18.205Z,97183.56
2022-07-29T13:41:44.729Z,97184.22
2022-07-29T13:44:11.935Z,97185.81
2022-07-29T13:46:39.982Z,97178.09
2022-07-29T13:49:06.833Z,97181.69
2022-07-29T13:51:34.753Z,97180.44
2022-07-29T13:54:01.309Z,97184.25
2022-07-29T13:56:29.207Z,97176.84
2022-07-29T13:58:55.769Z,97171.91
2022-07-29T14:01:22.686Z,97174.50
2022-07-29T14:03:49.311Z,97178.28
2022-07-29T14:06:15.938Z,97172.63
2022-07-29T14:08:46.149Z,97176.56
2022-07-29T14:11:12.698Z,97172.28
2022-07-29T14:13:39.261Z,97161.88
2022-07-29T14:16:06.570Z,97162.66
2022-07-29T14:18:33.256Z,97172.81
2022-07-29T14:21:00.010Z,97174.19
2022-07-29T14:23:26.577Z,97171.44
2022-07-29T14:25:54.468Z,97174.06
2022-07-29T14:28:21.066Z,97167.59
2022-07-29T14:30:47.954Z,97166.28
2022-07-29T14:33:14.526Z,97165.97
2022-07-29T14:35:41.100Z,97161.03
2022-07-29T14:38:07.657Z,97163.69
2022-07-29T14:40:34.698Z,97149.78
2022-07-29T14:43:03.007Z,97158.00
2022-07-29T14:45:30.090Z,97166.50
2022-07-29T14:47:57.308Z,97168.09
2022-07-29T14:50:31.781Z,97173.25
2022-07-29T14:52:58.949Z,97173.09
2022-07-29T14:55:25.720Z,97179.91
2022-07-29T14:57:55.439Z,97175.50
2022-07-29T15:00:26.654Z,97185.19
2022-07-29T15:03:02.025Z,97177.28
2022-07-29T15:05:29.506Z,97173.47
2022-07-29T15:07:56.075Z,97169.78
2022-07-29T15:10:22.685Z,97165.50
2022-07-29T15:12:51.438Z,97165.75
2022-07-29T15:15:18.108Z,97155.50
2022-07-29T15:17:46.002Z,97152.97
2022-07-29T15:20:12.633Z,97163.56
2022-07-29T15:22:39.531Z,97164.75
2022-07-29T15:25:07.031Z,97168.25
2022-07-29T15:27:33.796Z,97163.03
2022-07-29T15:30:00.360Z,97158.94
2022-07-29T15:32:27.159Z,97161.78
2022-07-29T15:34:55.093Z,97160.06
2022-07-29T15:37:21.636Z,97164.22
2022-07-29T15:39:48.174Z,97166.78
2022-07-29T15:42:14.709Z,97170.78
2022-07-29T15:44:44.433Z,97173.81
2022-07-29T15:47:11.051Z,97172.75
2022-07-29T15:49:47.525Z,97175.78
2022-07-29T15:52:18.789Z,97180.97
2022-07-29T15:54:45.679Z,97176.09
2022-07-29T15:57:12.521Z,97178.06
2022-07-29T15:59:39.139Z,97180.00
2022-07-29T16:02:06.486Z,97186.00
2022-07-29T16:04:33.098Z,97182.72
2022-07-29T16:07:00.327Z,97191.16
2022-07-29T16:09:28.500Z,97188.63
2022-07-29T16:11:55.025Z,97192.72
2022-07-29T16:14:21.712Z,97183.72
2022-07-29T16:16:48.518Z,97188.69
2022-07-29T16:19:16.354Z,97181.31
2022-07-29T16:21:42.911Z,97182.97
2022-07-29T16:24:09.637Z,97197.16
2022-07-29T16:26:37.585Z,97200.91
2022-07-29T16:29:04.755Z,97190.41
2022-07-29T16:31:31.574Z,97196.47
2022-07-29T16:33:58.172Z,97197.44
2022-07-29T16:36:24.701Z,97196.72
2022-07-29T16:38:51.354Z,97203.69
2022-07-29T16:41:17.934Z,97199.63
2022-07-29T16:43:45.887Z,97211.00
2022-07-29T16:46:12.524Z,97230.13
2022-07-29T16:48:45.438Z,97215.97
2022-07-29T16:51:14.283Z,97220.47
2022-07-29T16:53:41.241Z,97220.50
2022-07-29T16:56:08.485Z,97228.59
2022-07-29T16:58:43.449Z,97233.00
2022-07-29T17:01:12.377Z,97229.78
2022-07-29T17:03:39.115Z,97228.59
2022-07-29T17:06:05.696Z,97237.09
2022-07-29T17:08:32.217Z,97240.75
2022-07-29T17:10:58.759Z,97244.84
2022-07-29T17:13:25.299Z,97240.41
2022-07-29T17:15:51.859Z,97242.03
2022-07-29T17:18:19.798Z,97239.56
2022-07-29T17:20:46.377Z,97245.25
2022-07-29T17:23:12.944Z,97246.44
2022-07-29T17:25:39.492Z,97240.78
2022-07-29T17:28:06.066Z,97249.25
2022-07-29T17:30:32.644Z,97252.09
2022-07-29T17:32:59.177Z,97254.09
2022-07-29T17:35:27.098Z,97252.84
2022-07-29T17:37:53.744Z,97248.44
2022-07-29T17:40:20.637Z,97248.00
2022-07-29T17:42:47.192Z,97250.44
2022-07-29T17:45:13.775Z,97247.59
2022-07-29T17:47:40.291Z,97246.41
2022-07-29T17:50:07.228Z,97248.78
2022-07-29T17:52:35.637Z,97246.75
2022-07-29T17:55:02.240Z,97250.38
2022-07-29T17:57:28.796Z,97249.16
2022-07-29T17:59:55.365Z,97246.69
2022-07-29T18:02:21.969Z,97257.56
2022-07-29T18:04:51.606Z,97262.34
2022-07-29T18:07:18.178Z,97261.09
2022-07-29T18:09:46.120Z,97268.31
2022-07-29T18:12:12.683Z,97268.28
2022-07-29T18:14:39.257Z,97281.88
2022-07-29T18:17:05.838Z,97288.19
2022-07-29T18:19:32.378Z,97300.06
2022-07-29T18:22:04.031Z,97328.69
2022-07-29T18:24:32.046Z,97324.94
2022-07-29T18:27:00.238Z,97338.50
2022-07-29T18:29:27.056Z,97344.91
2022-07-29T18:31:53.579Z,97334.41
2022-07-29T18:34:20.125Z,97327.00
2022-07-29T18:36:47.149Z,97329.25
2022-07-29T18:39:20.841Z,97336.88
2022-07-29T18:41:50.125Z,97340.13
2022-07-29T18:44:21.815Z,97333.25
2022-07-29T18:46:49.307Z,97341.88
2022-07-29T18:49:16.026Z,97348.72
2022-07-29T18:51:42.918Z,97361.84
2022-07-29T18:54:09.561Z,97360.47
2022-07-29T18:56:36.628Z,97356.69
2022-07-29T18:59:03.233Z,97360.03
2022-07-29T19:01:31.592Z,97356.72
2022-07-29T19:03:59.102Z,97355.13
2022-07-29T19:06:26.171Z,97357.16
2022-07-29T19:08:52.833Z,97363.94
2022-07-29T19:11:19.389Z,97359.75
2022-07-29T19:13:45.917Z,97352.75
2022-07-29T19:16:12.554Z,97362.81
2022-07-29T19:18:40.704Z,97361.00
2022-07-29T19:21:07.410Z,97364.25
2022-07-29T19:24:00.223Z,97366.84
2022-07-29T19:26:20.930Z,97375.97
2022-07-29T19:28:48.830Z,97373.78
2022-07-29T19:31:16.208Z,97378.91
2022-07-29T19:33:44.255Z,97381.94
2022-07-29T19:36:10.927Z,97393.53
2022-07-29T19:38:37.456Z,97386.66
2022-07-29T19:41:04.022Z,97388.31
2022-07-29T19:43:51.149Z,97394.75
2022-07-29T19:46:17.166Z,97389.53
2022-07-29T19:48:45.139Z,97393.50
2022-07-29T19:51:11.850Z,97382.69
2022-07-29T19:53:38.382Z,97382.41
2022-07-29T19:56:05.533Z,97384.00
2022-07-29T19:58:35.462Z,97389.94
2022-07-29T20:01:02.762Z,97389.25
2022-07-29T20:03:37.199Z,97382.69
2022-07-29T20:06:05.427Z,97380.22
2022-07-29T20:08:31.958Z,97383.78
2022-07-29T20:10:58.529Z,97374.84
2022-07-29T20:13:25.068Z,97381.50
2022-07-29T20:15:51.664Z,97390.75
2022-07-29T20:18:18.281Z,97391.16
2022-07-29T20:20:44.818Z,97394.19
2022-07-29T20:23:12.784Z,97406.16
2022-07-29T20:25:39.303Z,97409.38
2022-07-29T20:28:05.851Z,97422.91
2022-07-29T20:30:32.394Z,97420.31
2022-07-29T20:32:59.563Z,97426.78
2022-07-29T20:35:26.288Z,97433.88
2022-07-29T20:37:56.474Z,97439.13
2022-07-29T20:40:25.088Z,97445.03
2022-07-29T20:42:51.683Z,97447.31
2022-07-29T20:45:18.201Z,97449.50
2022-07-29T20:47:44.763Z,97454.31
2022-07-29T20:50:11.590Z,97454.03
2022-07-29T20:52:38.147Z,97453.59
2022-07-29T20:55:05.726Z,97452.91
2022-07-29T20:57:39.485Z,97460.94
2022-07-29T21:00:07.768Z,97460.31
2022-07-29T21:02:34.434Z,97461.50
2022-07-29T21:05:01.061Z,97453.81
2022-07-29T21:07:27.701Z,97462.66
2022-07-29T21:09:54.229Z,97459.50
2022-07-29T21:12:20.926Z,97456.69
2022-07-29T21:14:48.828Z,97463.09
2022-07-29T21:17:16.206Z,97458.50
2022-07-29T21:19:42.888Z,97468.47
2022-07-29T21:22:09.692Z,97464.47
2022-07-29T21:24:36.476Z,97464.69
2022-07-29T21:27:19.628Z,97463.50
2022-07-29T21:29:49.154Z,97468.56
2022-07-29T21:32:27.257Z,97461.03
2022-07-29T21:34:56.766Z,97465.63
2022-07-29T21:37:23.379Z,97471.78
2022-07-29T21:39:49.976Z,97469.44
2022-07-29T21:42:16.817Z,97471.25
2022-07-29T21:44:43.366Z,97472.41
2022-07-29T21:47:11.467Z,97470.72
2022-07-29T21:49:38.415Z,97470.34
2022-07-29T21:52:05.729Z,97467.34
2022-07-29T21:54:34.586Z,97470.72
2022-07-29T21:57:01.251Z,97470.63
2022-07-29T21:59:27.794Z,97467.69
2022-07-29T22:01:54.402Z,97468.25
2022-07-29T22:04:22.357Z,97472.34
2022-07-29T22:06:48.954Z,97465.91
2022-07-29T22:09:15.480Z,97456.34
2022-07-29T22:11:42.057Z,97450.31
2022-07-29T22:14:08.591Z,97444.72
2022-07-29T22:16:35.292Z,97450.91
2022-07-29T22:19:01.954Z,97446.28
2022-07-29T22:21:29.845Z,97447.00
2022-07-29T22:23:56.393Z,97450.06
2022-07-29T22:26:22.962Z,97454.41
2022-07-29T22:28:50.142Z,97445.06
2022-07-29T22:31:16.736Z,97444.56
2022-07-29T22:33:43.350Z,97439.69
2022-07-29T22:36:09.922Z,97439.94
2022-07-29T22:38:37.812Z,97440.19
2022-07-29T22:41:04.366Z,97443.94
2022-07-29T22:43:30.901Z,97434.44
2022-07-29T22:45:57.476Z,97439.31
2022-07-29T22:48:24.093Z,97431.63
2022-07-29T22:50:51.005Z,97436.34
2022-07-29T22:53:17.572Z,97439.47
2022-07-29T22:55:46.541Z,97423.00
2022-07-29T22:58:13.098Z,97417.81
2022-07-29T23:00:39.645Z,97425.88
2022-07-29T23:03:06.184Z,97433.66
2022-07-29T23:05:32.819Z,97429.09
2022-07-29T23:07:59.395Z,97422.84
2022-07-29T23:10:26.085Z,97421.91
2022-07-29T23:12:54.016Z,97429.47
2022-07-29T23:15:20.732Z,97431.00
2022-07-29T23:17:47.275Z,97425.75
2022-07-29T23:20:14.788Z,97426.59
2022-07-29T23:22:41.795Z,97428.00
2022-07-29T23:25:08.754Z,97428.22
2022-07-29T23:27:35.497Z,97436.59
2022-07-29T23:30:04.321Z,97427.31
2022-07-29T23:32:30.873Z,97423.72
2022-07-29T23:34:57.412Z,97421.94
2022-07-29T23:37:24.078Z,97407.44
2022-07-29T23:39:53.397Z,97409.28
2022-07-29T23:42:19.965Z,97402.16
2022-07-29T23:44:46.494Z,97411.25
2022-07-29T23:47:14.406Z,97412.19
2022-07-29T23:49:40.967Z,97417.94
2022-07-29T23:52:07.598Z,97416.06
2022-07-29T23:54:34.158Z,97419.81
2022-07-29T23:57:01.009Z,97421.06
2022-07-29T23:59:27.745Z,97421.06
